sensor_id;sensor_type;location;lat;lon;timestamp;P1;durP1;ratioP1;P2;durP2;ratioP2
64387;SDS011;50709;52.648;4.764;2023-03-08T00:02:07;2.38;;;1.25;;
64387;SDS011;50709;52.648;4.764;2023-03-08T00:04:32;2.75;;;1.40;;
64387;SDS011;50709;52.648;4.764;2023-03-08T00:06:58;4.82;;;2.30;;
64387;SDS011;50709;52.648;4.764;2023-03-08T00:09:24;3.70;;;1.48;;
64387;SDS011;50709;52.648;4.764;2023-03-08T00:11:49;6.60;;;1.85;;
64387;SDS011;50709;52.648;4.764;2023-03-08T00:14:15;2.63;;;1.20;;
64387;SDS011;50709;52.648;4.764;2023-03-08T00:16:41;4.20;;;1.40;;
64387;SDS011;50709;52.648;4.764;2023-03-08T00:19:07;1.83;;;1.30;;
64387;SDS011;50709;52.648;4.764;2023-03-08T00:21:32;2.35;;;1.20;;
64387;SDS011;50709;52.648;4.764;2023-03-08T00:23:57;3.97;;;1.63;;
64387;SDS011;50709;52.648;4.764;2023-03-08T00:26:23;2.53;;;1.67;;
64387;SDS011;50709;52.648;4.764;2023-03-08T00:28:48;2.85;;;1.88;;
64387;SDS011;50709;52.648;4.764;2023-03-08T00:31:14;2.85;;;2.10;;
64387;SDS011;50709;52.648;4.764;2023-03-08T00:33:59;5.05;;;2.38;;
64387;SDS011;50709;52.648;4.764;2023-03-08T00:36:25;4.13;;;1.60;;
64387;SDS011;50709;52.648;4.764;2023-03-08T00:38:50;4.32;;;1.90;;
64387;SDS011;50709;52.648;4.764;2023-03-08T00:41:16;4.10;;;2.30;;
64387;SDS011;50709;52.648;4.764;2023-03-08T00:43:42;4.97;;;2.00;;
64387;SDS011;50709;52.648;4.764;2023-03-08T00:46:07;4.28;;;2.20;;
64387;SDS011;50709;52.648;4.764;2023-03-08T00:48:33;4.55;;;1.80;;
64387;SDS011;50709;52.648;4.764;2023-03-08T00:50:59;2.78;;;1.92;;
64387;SDS011;50709;52.648;4.764;2023-03-08T00:53:25;4.95;;;1.80;;
64387;SDS011;50709;52.648;4.764;2023-03-08T00:55:51;4.35;;;2.10;;
64387;SDS011;50709;52.648;4.764;2023-03-08T00:58:18;5.55;;;2.67;;
64387;SDS011;50709;52.648;4.764;2023-03-08T01:00:44;6.65;;;2.65;;
64387;SDS011;50709;52.648;4.764;2023-03-08T01:03:10;5.15;;;2.33;;
64387;SDS011;50709;52.648;4.764;2023-03-08T01:05:43;4.82;;;2.30;;
64387;SDS011;50709;52.648;4.764;2023-03-08T01:08:10;4.45;;;2.30;;
64387;SDS011;50709;52.648;4.764;2023-03-08T01:10:36;3.45;;;2.00;;
64387;SDS011;50709;52.648;4.764;2023-03-08T01:13:02;3.15;;;1.77;;
64387;SDS011;50709;52.648;4.764;2023-03-08T01:15:29;4.63;;;1.88;;
64387;SDS011;50709;52.648;4.764;2023-03-08T01:17:58;4.90;;;2.03;;
64387;SDS011;50709;52.648;4.764;2023-03-08T01:20:23;4.60;;;2.15;;
64387;SDS011;50709;52.648;4.764;2023-03-08T01:22:49;5.70;;;2.10;;
64387;SDS011;50709;52.648;4.764;2023-03-08T01:25:14;4.95;;;1.90;;
64387;SDS011;50709;52.648;4.764;2023-03-08T01:27:40;4.07;;;1.90;;
64387;SDS011;50709;52.648;4.764;2023-03-08T01:30:05;3.65;;;1.90;;
64387;SDS011;50709;52.648;4.764;2023-03-08T01:32:31;3.05;;;1.83;;
64387;SDS011;50709;52.648;4.764;2023-03-08T01:34:56;3.20;;;1.90;;
64387;SDS011;50709;52.648;4.764;2023-03-08T01:37:27;6.00;;;2.15;;
64387;SDS011;50709;52.648;4.764;2023-03-08T01:39:52;3.55;;;2.20;;
64387;SDS011;50709;52.648;4.764;2023-03-08T01:42:18;2.58;;;1.70;;
64387;SDS011;50709;52.648;4.764;2023-03-08T01:47:26;3.28;;;1.70;;
64387;SDS011;50709;52.648;4.764;2023-03-08T01:50:03;5.22;;;1.90;;
64387;SDS011;50709;52.648;4.764;2023-03-08T01:52:32;4.35;;;1.70;;
64387;SDS011;50709;52.648;4.764;2023-03-08T01:55:09;3.80;;;1.50;;
64387;SDS011;50709;52.648;4.764;2023-03-08T01:57:44;4.22;;;1.70;;
64387;SDS011;50709;52.648;4.764;2023-03-08T02:00:13;2.63;;;1.52;;
64387;SDS011;50709;52.648;4.764;2023-03-08T02:03:03;2.92;;;1.70;;
64387;SDS011;50709;52.648;4.764;2023-03-08T02:05:32;3.97;;;1.80;;
64387;SDS011;50709;52.648;4.764;2023-03-08T02:08:00;3.40;;;1.80;;
64387;SDS011;50709;52.648;4.764;2023-03-08T02:10:25;2.38;;;1.73;;
64387;SDS011;50709;52.648;4.764;2023-03-08T02:12:51;4.20;;;1.85;;
64387;SDS011;50709;52.648;4.764;2023-03-08T02:15:17;3.03;;;1.65;;
64387;SDS011;50709;52.648;4.764;2023-03-08T02:17:45;3.67;;;1.55;;
64387;SDS011;50709;52.648;4.764;2023-03-08T02:20:13;2.13;;;1.40;;
64387;SDS011;50709;52.648;4.764;2023-03-08T02:22:43;3.25;;;1.55;;
64387;SDS011;50709;52.648;4.764;2023-03-08T02:25:16;2.63;;;1.70;;
64387;SDS011;50709;52.648;4.764;2023-03-08T02:27:44;3.13;;;1.70;;
64387;SDS011;50709;52.648;4.764;2023-03-08T02:30:10;6.65;;;1.70;;
64387;SDS011;50709;52.648;4.764;2023-03-08T02:32:37;2.30;;;1.80;;
64387;SDS011;50709;52.648;4.764;2023-03-08T02:35:02;3.97;;;1.88;;
64387;SDS011;50709;52.648;4.764;2023-03-08T02:37:29;3.33;;;1.60;;
64387;SDS011;50709;52.648;4.764;2023-03-08T02:39:55;3.05;;;1.63;;
64387;SDS011;50709;52.648;4.764;2023-03-08T02:42:21;2.67;;;1.50;;
64387;SDS011;50709;52.648;4.764;2023-03-08T02:44:46;2.90;;;1.60;;
64387;SDS011;50709;52.648;4.764;2023-03-08T02:47:11;3.28;;;1.45;;
64387;SDS011;50709;52.648;4.764;2023-03-08T02:49:37;4.60;;;1.63;;
64387;SDS011;50709;52.648;4.764;2023-03-08T02:52:02;1.77;;;1.52;;
64387;SDS011;50709;52.648;4.764;2023-03-08T02:54:28;2.75;;;1.70;;
64387;SDS011;50709;52.648;4.764;2023-03-08T02:56:53;4.15;;;1.70;;
64387;SDS011;50709;52.648;4.764;2023-03-08T02:59:18;2.80;;;1.50;;
64387;SDS011;50709;52.648;4.764;2023-03-08T03:01:44;3.20;;;1.38;;
64387;SDS011;50709;52.648;4.764;2023-03-08T03:04:09;2.55;;;1.60;;
64387;SDS011;50709;52.648;4.764;2023-03-08T03:06:35;5.13;;;1.55;;
64387;SDS011;50709;52.648;4.764;2023-03-08T03:09:00;1.27;;;1.17;;
64387;SDS011;50709;52.648;4.764;2023-03-08T03:11:30;1.75;;;1.02;;
64387;SDS011;50709;52.648;4.764;2023-03-08T03:13:56;2.05;;;1.30;;
64387;SDS011;50709;52.648;4.764;2023-03-08T03:16:23;1.38;;;1.05;;
64387;SDS011;50709;52.648;4.764;2023-03-08T03:18:50;0.95;;;0.93;;
64387;SDS011;50709;52.648;4.764;2023-03-08T03:21:19;3.40;;;1.40;;
64387;SDS011;50709;52.648;4.764;2023-03-08T03:23:45;1.42;;;0.98;;
64387;SDS011;50709;52.648;4.764;2023-03-08T03:26:12;2.67;;;1.20;;
64387;SDS011;50709;52.648;4.764;2023-03-08T03:28:39;1.15;;;1.05;;
64387;SDS011;50709;52.648;4.764;2023-03-08T03:31:09;1.08;;;1.02;;
64387;SDS011;50709;52.648;4.764;2023-03-08T03:33:37;1.50;;;1.38;;
64387;SDS011;50709;52.648;4.764;2023-03-08T03:36:03;3.17;;;1.20;;
64387;SDS011;50709;52.648;4.764;2023-03-08T03:38:30;2.20;;;1.38;;
64387;SDS011;50709;52.648;4.764;2023-03-08T03:41:05;3.38;;;1.25;;
64387;SDS011;50709;52.648;4.764;2023-03-08T03:43:32;2.85;;;2.05;;
64387;SDS011;50709;52.648;4.764;2023-03-08T03:45:59;2.75;;;2.10;;
64387;SDS011;50709;52.648;4.764;2023-03-08T03:48:27;4.88;;;2.33;;
64387;SDS011;50709;52.648;4.764;2023-03-08T03:50:56;3.53;;;2.17;;
64387;SDS011;50709;52.648;4.764;2023-03-08T03:53:26;4.13;;;2.90;;
64387;SDS011;50709;52.648;4.764;2023-03-08T03:55:52;5.38;;;2.72;;
64387;SDS011;50709;52.648;4.764;2023-03-08T03:58:18;4.18;;;3.03;;
64387;SDS011;50709;52.648;4.764;2023-03-08T04:00:43;4.57;;;3.13;;
64387;SDS011;50709;52.648;4.764;2023-03-08T04:03:09;4.45;;;3.10;;
64387;SDS011;50709;52.648;4.764;2023-03-08T04:05:35;4.05;;;3.28;;
64387;SDS011;50709;52.648;4.764;2023-03-08T04:08:00;4.95;;;3.38;;
64387;SDS011;50709;52.648;4.764;2023-03-08T04:10:25;4.97;;;3.38;;
64387;SDS011;50709;52.648;4.764;2023-03-08T04:12:51;4.47;;;3.40;;
64387;SDS011;50709;52.648;4.764;2023-03-08T04:15:17;6.90;;;3.65;;
64387;SDS011;50709;52.648;4.764;2023-03-08T04:17:43;4.47;;;3.35;;
64387;SDS011;50709;52.648;4.764;2023-03-08T04:20:09;5.18;;;3.75;;
64387;SDS011;50709;52.648;4.764;2023-03-08T04:22:35;5.93;;;3.78;;
64387;SDS011;50709;52.648;4.764;2023-03-08T04:25:00;4.97;;;3.70;;
64387;SDS011;50709;52.648;4.764;2023-03-08T04:27:26;3.80;;;3.10;;
64387;SDS011;50709;52.648;4.764;2023-03-08T04:29:51;4.97;;;3.55;;
64387;SDS011;50709;52.648;4.764;2023-03-08T04:32:17;5.70;;;3.95;;
64387;SDS011;50709;52.648;4.764;2023-03-08T04:34:43;5.43;;;4.15;;
64387;SDS011;50709;52.648;4.764;2023-03-08T04:37:11;6.28;;;3.90;;
64387;SDS011;50709;52.648;4.764;2023-03-08T04:39:37;5.10;;;3.60;;
64387;SDS011;50709;52.648;4.764;2023-03-08T04:42:03;5.18;;;3.88;;
64387;SDS011;50709;52.648;4.764;2023-03-08T04:44:28;5.88;;;4.43;;
64387;SDS011;50709;52.648;4.764;2023-03-08T04:46:54;8.00;;;4.07;;
64387;SDS011;50709;52.648;4.764;2023-03-08T04:49:20;6.90;;;4.55;;
64387;SDS011;50709;52.648;4.764;2023-03-08T04:51:45;6.55;;;4.78;;
64387;SDS011;50709;52.648;4.764;2023-03-08T04:54:10;5.82;;;4.07;;
64387;SDS011;50709;52.648;4.764;2023-03-08T04:56:36;6.90;;;4.18;;
64387;SDS011;50709;52.648;4.764;2023-03-08T04:59:02;6.13;;;4.55;;
64387;SDS011;50709;52.648;4.764;2023-03-08T05:01:28;8.77;;;4.97;;
64387;SDS011;50709;52.648;4.764;2023-03-08T05:03:53;7.18;;;4.70;;
64387;SDS011;50709;52.648;4.764;2023-03-08T05:06:19;7.72;;;4.90;;
64387;SDS011;50709;52.648;4.764;2023-03-08T05:08:46;6.88;;;5.10;;
64387;SDS011;50709;52.648;4.764;2023-03-08T05:11:15;10.25;;;5.45;;
64387;SDS011;50709;52.648;4.764;2023-03-08T05:13:43;7.65;;;4.78;;
64387;SDS011;50709;52.648;4.764;2023-03-08T05:16:08;8.05;;;5.20;;
64387;SDS011;50709;52.648;4.764;2023-03-08T05:18:34;7.90;;;5.38;;
64387;SDS011;50709;52.648;4.764;2023-03-08T05:21:01;8.25;;;5.40;;
64387;SDS011;50709;52.648;4.764;2023-03-08T05:23:28;8.05;;;5.35;;
64387;SDS011;50709;52.648;4.764;2023-03-08T05:25:55;9.20;;;5.45;;
64387;SDS011;50709;52.648;4.764;2023-03-08T05:28:22;10.65;;;5.93;;
64387;SDS011;50709;52.648;4.764;2023-03-08T05:30:58;6.85;;;4.93;;
64387;SDS011;50709;52.648;4.764;2023-03-08T05:33:28;7.53;;;5.25;;
64387;SDS011;50709;52.648;4.764;2023-03-08T05:35:54;6.80;;;5.10;;
64387;SDS011;50709;52.648;4.764;2023-03-08T05:38:20;10.43;;;6.13;;
64387;SDS011;50709;52.648;4.764;2023-03-08T05:40:46;7.38;;;5.47;;
64387;SDS011;50709;52.648;4.764;2023-03-08T05:43:11;6.72;;;5.38;;
64387;SDS011;50709;52.648;4.764;2023-03-08T05:45:37;6.13;;;5.20;;
64387;SDS011;50709;52.648;4.764;2023-03-08T05:48:02;7.25;;;5.63;;
64387;SDS011;50709;52.648;4.764;2023-03-08T05:50:28;7.68;;;5.57;;
64387;SDS011;50709;52.648;4.764;2023-03-08T05:52:53;7.22;;;5.25;;
64387;SDS011;50709;52.648;4.764;2023-03-08T05:55:19;7.47;;;5.45;;
64387;SDS011;50709;52.648;4.764;2023-03-08T05:57:44;9.00;;;6.00;;
64387;SDS011;50709;52.648;4.764;2023-03-08T06:00:10;8.95;;;6.43;;
64387;SDS011;50709;52.648;4.764;2023-03-08T06:02:35;8.13;;;5.32;;
64387;SDS011;50709;52.648;4.764;2023-03-08T06:05:01;6.70;;;5.68;;
64387;SDS011;50709;52.648;4.764;2023-03-08T06:07:26;8.27;;;5.78;;
64387;SDS011;50709;52.648;4.764;2023-03-08T06:09:52;8.40;;;6.10;;
64387;SDS011;50709;52.648;4.764;2023-03-08T06:12:17;8.57;;;6.00;;
64387;SDS011;50709;52.648;4.764;2023-03-08T06:14:42;10.57;;;5.95;;
64387;SDS011;50709;52.648;4.764;2023-03-08T06:17:08;9.65;;;5.78;;
64387;SDS011;50709;52.648;4.764;2023-03-08T06:19:34;7.22;;;5.28;;
64387;SDS011;50709;52.648;4.764;2023-03-08T06:22:00;8.88;;;6.10;;
64387;SDS011;50709;52.648;4.764;2023-03-08T06:24:25;8.40;;;5.25;;
64387;SDS011;50709;52.648;4.764;2023-03-08T06:26:51;9.30;;;6.13;;
64387;SDS011;50709;52.648;4.764;2023-03-08T06:29:17;10.25;;;6.15;;
64387;SDS011;50709;52.648;4.764;2023-03-08T06:31:42;6.78;;;4.32;;
64387;SDS011;50709;52.648;4.764;2023-03-08T06:34:08;8.23;;;5.95;;
64387;SDS011;50709;52.648;4.764;2023-03-08T06:36:35;9.48;;;5.38;;
64387;SDS011;50709;52.648;4.764;2023-03-08T06:39:00;8.13;;;5.88;;
64387;SDS011;50709;52.648;4.764;2023-03-08T06:41:27;8.77;;;5.43;;
64387;SDS011;50709;52.648;4.764;2023-03-08T06:43:54;8.93;;;5.25;;
64387;SDS011;50709;52.648;4.764;2023-03-08T06:46:20;8.13;;;4.97;;
64387;SDS011;50709;52.648;4.764;2023-03-08T06:48:45;8.10;;;5.20;;
64387;SDS011;50709;52.648;4.764;2023-03-08T06:51:12;9.40;;;5.85;;
64387;SDS011;50709;52.648;4.764;2023-03-08T06:53:38;7.15;;;5.38;;
64387;SDS011;50709;52.648;4.764;2023-03-08T06:56:04;7.07;;;5.15;;
64387;SDS011;50709;52.648;4.764;2023-03-08T06:58:31;9.50;;;5.63;;
64387;SDS011;50709;52.648;4.764;2023-03-08T07:00:58;7.85;;;5.22;;
64387;SDS011;50709;52.648;4.764;2023-03-08T07:03:24;12.40;;;5.78;;
64387;SDS011;50709;52.648;4.764;2023-03-08T07:05:50;6.20;;;4.72;;
64387;SDS011;50709;52.648;4.764;2023-03-08T07:08:15;6.88;;;5.43;;
64387;SDS011;50709;52.648;4.764;2023-03-08T07:10:40;9.93;;;5.78;;
64387;SDS011;50709;52.648;4.764;2023-03-08T07:13:06;7.53;;;5.32;;
64387;SDS011;50709;52.648;4.764;2023-03-08T07:15:31;8.90;;;5.93;;
64387;SDS011;50709;52.648;4.764;2023-03-08T07:17:57;11.35;;;6.80;;
64387;SDS011;50709;52.648;4.764;2023-03-08T07:20:23;14.18;;;8.02;;
64387;SDS011;50709;52.648;4.764;2023-03-08T07:22:50;13.50;;;7.85;;
64387;SDS011;50709;52.648;4.764;2023-03-08T07:25:16;12.43;;;7.07;;
64387;SDS011;50709;52.648;4.764;2023-03-08T07:27:43;10.48;;;7.57;;
64387;SDS011;50709;52.648;4.764;2023-03-08T07:30:12;11.63;;;6.47;;
64387;SDS011;50709;52.648;4.764;2023-03-08T07:32:39;10.25;;;5.93;;
64387;SDS011;50709;52.648;4.764;2023-03-08T07:35:10;9.90;;;6.10;;
64387;SDS011;50709;52.648;4.764;2023-03-08T07:37:36;8.60;;;6.20;;
64387;SDS011;50709;52.648;4.764;2023-03-08T07:40:03;8.73;;;5.15;;
64387;SDS011;50709;52.648;4.764;2023-03-08T07:42:29;9.02;;;5.97;;
64387;SDS011;50709;52.648;4.764;2023-03-08T07:44:55;7.57;;;5.72;;
64387;SDS011;50709;52.648;4.764;2023-03-08T07:47:20;11.77;;;6.75;;
64387;SDS011;50709;52.648;4.764;2023-03-08T07:49:46;8.70;;;6.35;;
64387;SDS011;50709;52.648;4.764;2023-03-08T07:52:11;10.52;;;6.50;;
64387;SDS011;50709;52.648;4.764;2023-03-08T07:54:37;10.23;;;6.82;;
64387;SDS011;50709;52.648;4.764;2023-03-08T07:57:02;10.15;;;6.45;;
64387;SDS011;50709;52.648;4.764;2023-03-08T07:59:28;10.43;;;7.15;;
64387;SDS011;50709;52.648;4.764;2023-03-08T08:01:54;11.70;;;7.28;;
64387;SDS011;50709;52.648;4.764;2023-03-08T08:04:19;9.50;;;7.20;;
64387;SDS011;50709;52.648;4.764;2023-03-08T08:06:47;9.90;;;7.32;;
64387;SDS011;50709;52.648;4.764;2023-03-08T08:09:12;9.43;;;6.20;;
64387;SDS011;50709;52.648;4.764;2023-03-08T08:11:39;8.35;;;6.00;;
64387;SDS011;50709;52.648;4.764;2023-03-08T08:14:04;9.73;;;6.75;;
64387;SDS011;50709;52.648;4.764;2023-03-08T08:16:30;8.07;;;5.75;;
64387;SDS011;50709;52.648;4.764;2023-03-08T08:18:56;8.65;;;5.60;;
64387;SDS011;50709;52.648;4.764;2023-03-08T08:21:21;11.07;;;6.30;;
64387;SDS011;50709;52.648;4.764;2023-03-08T08:23:47;11.02;;;6.20;;
64387;SDS011;50709;52.648;4.764;2023-03-08T08:26:14;9.40;;;6.03;;
64387;SDS011;50709;52.648;4.764;2023-03-08T08:28:44;10.77;;;6.20;;
64387;SDS011;50709;52.648;4.764;2023-03-08T08:31:12;7.63;;;5.63;;
64387;SDS011;50709;52.648;4.764;2023-03-08T08:33:41;8.32;;;5.75;;
64387;SDS011;50709;52.648;4.764;2023-03-08T08:36:08;7.43;;;5.50;;
64387;SDS011;50709;52.648;4.764;2023-03-08T08:38:37;8.80;;;6.50;;
64387;SDS011;50709;52.648;4.764;2023-03-08T08:41:03;8.95;;;5.85;;
64387;SDS011;50709;52.648;4.764;2023-03-08T08:43:31;8.95;;;5.65;;
64387;SDS011;50709;52.648;4.764;2023-03-08T08:45:58;9.75;;;5.95;;
64387;SDS011;50709;52.648;4.764;2023-03-08T08:48:24;8.15;;;6.07;;
64387;SDS011;50709;52.648;4.764;2023-03-08T08:50:50;8.55;;;6.20;;
64387;SDS011;50709;52.648;4.764;2023-03-08T08:53:16;8.85;;;6.50;;
64387;SDS011;50709;52.648;4.764;2023-03-08T08:55:41;9.13;;;6.70;;
64387;SDS011;50709;52.648;4.764;2023-03-08T08:58:07;10.02;;;5.95;;
64387;SDS011;50709;52.648;4.764;2023-03-08T09:00:33;7.55;;;5.47;;
64387;SDS011;50709;52.648;4.764;2023-03-08T09:02:59;9.43;;;5.30;;
64387;SDS011;50709;52.648;4.764;2023-03-08T09:05:25;9.85;;;6.53;;
64387;SDS011;50709;52.648;4.764;2023-03-08T09:07:52;9.00;;;5.40;;
64387;SDS011;50709;52.648;4.764;2023-03-08T09:10:18;6.60;;;5.53;;
64387;SDS011;50709;52.648;4.764;2023-03-08T09:12:44;7.53;;;5.03;;
64387;SDS011;50709;52.648;4.764;2023-03-08T09:15:09;7.55;;;5.53;;
64387;SDS011;50709;52.648;4.764;2023-03-08T09:17:36;7.63;;;5.45;;
64387;SDS011;50709;52.648;4.764;2023-03-08T09:20:02;6.43;;;4.55;;
64387;SDS011;50709;52.648;4.764;2023-03-08T09:22:30;6.72;;;4.13;;
64387;SDS011;50709;52.648;4.764;2023-03-08T09:24:56;7.18;;;4.63;;
64387;SDS011;50709;52.648;4.764;2023-03-08T09:27:21;6.63;;;4.57;;
64387;SDS011;50709;52.648;4.764;2023-03-08T09:29:47;7.47;;;3.92;;
64387;SDS011;50709;52.648;4.764;2023-03-08T09:32:12;6.25;;;4.18;;
64387;SDS011;50709;52.648;4.764;2023-03-08T09:34:38;8.25;;;3.35;;
64387;SDS011;50709;52.648;4.764;2023-03-08T09:37:04;7.00;;;3.33;;
64387;SDS011;50709;52.648;4.764;2023-03-08T09:39:32;4.90;;;2.90;;
64387;SDS011;50709;52.648;4.764;2023-03-08T09:41:58;4.07;;;2.97;;
64387;SDS011;50709;52.648;4.764;2023-03-08T09:49:48;6.90;;;3.25;;
64387;SDS011;50709;52.648;4.764;2023-03-08T09:52:19;3.92;;;2.80;;
64387;SDS011;50709;52.648;4.764;2023-03-08T09:54:50;4.82;;;2.90;;
64387;SDS011;50709;52.648;4.764;2023-03-08T09:57:18;5.63;;;2.90;;
64387;SDS011;50709;52.648;4.764;2023-03-08T10:15:47;2.38;;;1.85;;
64387;SDS011;50709;52.648;4.764;2023-03-08T10:18:36;4.95;;;2.20;;
64387;SDS011;50709;52.648;4.764;2023-03-08T10:21:09;3.15;;;2.00;;
64387;SDS011;50709;52.648;4.764;2023-03-08T10:23:36;3.15;;;2.30;;
64387;SDS011;50709;52.648;4.764;2023-03-08T10:26:07;3.10;;;1.90;;
64387;SDS011;50709;52.648;4.764;2023-03-08T10:28:34;2.45;;;1.80;;
64387;SDS011;50709;52.648;4.764;2023-03-08T10:31:00;4.03;;;2.10;;
64387;SDS011;50709;52.648;4.764;2023-03-08T10:33:33;3.75;;;2.20;;
64387;SDS011;50709;52.648;4.764;2023-03-08T10:36:07;4.28;;;1.88;;
64387;SDS011;50709;52.648;4.764;2023-03-08T10:38:41;5.15;;;2.20;;
64387;SDS011;50709;52.648;4.764;2023-03-08T10:41:11;2.60;;;1.58;;
64387;SDS011;50709;52.648;4.764;2023-03-08T10:43:40;4.65;;;1.92;;
64387;SDS011;50709;52.648;4.764;2023-03-08T10:46:12;3.03;;;1.83;;
64387;SDS011;50709;52.648;4.764;2023-03-08T10:48:42;2.85;;;1.73;;
64387;SDS011;50709;52.648;4.764;2023-03-08T10:51:25;3.95;;;2.30;;
64387;SDS011;50709;52.648;4.764;2023-03-08T10:53:53;1.92;;;1.58;;
64387;SDS011;50709;52.648;4.764;2023-03-08T10:56:25;2.35;;;1.77;;
64387;SDS011;50709;52.648;4.764;2023-03-08T10:59:16;5.03;;;2.45;;
64387;SDS011;50709;52.648;4.764;2023-03-08T11:01:49;2.53;;;1.85;;
64387;SDS011;50709;52.648;4.764;2023-03-08T11:04:17;3.35;;;2.05;;
64387;SDS011;50709;52.648;4.764;2023-03-08T11:06:44;3.42;;;1.90;;
64387;SDS011;50709;52.648;4.764;2023-03-08T11:09:29;2.13;;;1.80;;
64387;SDS011;50709;52.648;4.764;2023-03-08T11:11:57;2.92;;;1.83;;
64387;SDS011;50709;52.648;4.764;2023-03-08T11:14:24;2.92;;;1.80;;
64387;SDS011;50709;52.648;4.764;2023-03-08T11:25:08;3.50;;;2.35;;
64387;SDS011;50709;52.648;4.764;2023-03-08T11:38:49;5.32;;;2.25;;
64387;SDS011;50709;52.648;4.764;2023-03-08T11:47:30;4.93;;;2.65;;
64387;SDS011;50709;52.648;4.764;2023-03-08T11:50:15;7.00;;;2.90;;
64387;SDS011;50709;52.648;4.764;2023-03-08T11:52:58;5.90;;;2.55;;
64387;SDS011;50709;52.648;4.764;2023-03-08T11:55:53;4.65;;;2.67;;
64387;SDS011;50709;52.648;4.764;2023-03-08T11:58:34;2.92;;;2.00;;
64387;SDS011;50709;52.648;4.764;2023-03-08T12:01:21;2.63;;;1.80;;
64387;SDS011;50709;52.648;4.764;2023-03-08T12:03:50;3.95;;;2.20;;
64387;SDS011;50709;52.648;4.764;2023-03-08T12:06:24;3.47;;;2.15;;
64387;SDS011;50709;52.648;4.764;2023-03-08T12:11:40;2.67;;;1.90;;
64387;SDS011;50709;52.648;4.764;2023-03-08T12:16:54;4.70;;;2.58;;
64387;SDS011;50709;52.648;4.764;2023-03-08T12:24:47;5.32;;;2.38;;
64387;SDS011;50709;52.648;4.764;2023-03-08T12:27:42;3.40;;;2.13;;
64387;SDS011;50709;52.648;4.764;2023-03-08T12:32:35;4.88;;;2.60;;
64387;SDS011;50709;52.648;4.764;2023-03-08T12:35:04;4.80;;;2.38;;
64387;SDS011;50709;52.648;4.764;2023-03-08T12:37:57;4.68;;;2.80;;
64387;SDS011;50709;52.648;4.764;2023-03-08T12:40:36;5.72;;;2.58;;
64387;SDS011;50709;52.648;4.764;2023-03-08T12:43:04;7.47;;;2.65;;
64387;SDS011;50709;52.648;4.764;2023-03-08T12:45:35;5.40;;;2.20;;
64387;SDS011;50709;52.648;4.764;2023-03-08T12:50:30;6.15;;;2.60;;
64387;SDS011;50709;52.648;4.764;2023-03-08T12:53:17;4.45;;;2.90;;
64387;SDS011;50709;52.648;4.764;2023-03-08T12:55:45;4.68;;;2.85;;
64387;SDS011;50709;52.648;4.764;2023-03-08T12:58:22;4.95;;;2.22;;
64387;SDS011;50709;52.648;4.764;2023-03-08T13:00:55;5.38;;;3.00;;
64387;SDS011;50709;52.648;4.764;2023-03-08T13:03:27;5.65;;;2.72;;
64387;SDS011;50709;52.648;4.764;2023-03-08T13:06:00;4.50;;;2.40;;
64387;SDS011;50709;52.648;4.764;2023-03-08T13:08:33;4.60;;;2.60;;
64387;SDS011;50709;52.648;4.764;2023-03-08T13:11:11;8.27;;;2.63;;
64387;SDS011;50709;52.648;4.764;2023-03-08T13:16:18;4.90;;;2.33;;
64387;SDS011;50709;52.648;4.764;2023-03-08T13:18:47;5.95;;;2.50;;
64387;SDS011;50709;52.648;4.764;2023-03-08T13:21:20;2.92;;;2.20;;
64387;SDS011;50709;52.648;4.764;2023-03-08T13:25:02;5.22;;;2.70;;
64387;SDS011;50709;52.648;4.764;2023-03-08T13:27:26;5.78;;;2.80;;
64387;SDS011;50709;52.648;4.764;2023-03-08T13:30:00;3.72;;;2.08;;
64387;SDS011;50709;52.648;4.764;2023-03-08T13:32:52;4.18;;;2.60;;
64387;SDS011;50709;52.648;4.764;2023-03-08T13:35:18;4.80;;;2.10;;
64387;SDS011;50709;52.648;4.764;2023-03-08T13:38:05;2.92;;;2.08;;
64387;SDS011;50709;52.648;4.764;2023-03-08T13:40:30;6.15;;;2.42;;
64387;SDS011;50709;52.648;4.764;2023-03-08T13:42:59;5.80;;;2.65;;
64387;SDS011;50709;52.648;4.764;2023-03-08T13:45:29;6.50;;;2.78;;
64387;SDS011;50709;52.648;4.764;2023-03-08T13:47:59;6.05;;;2.90;;
64387;SDS011;50709;52.648;4.764;2023-03-08T13:50:30;5.30;;;2.40;;
64387;SDS011;50709;52.648;4.764;2023-03-08T13:52:58;5.40;;;2.42;;
64387;SDS011;50709;52.648;4.764;2023-03-08T13:55:32;4.50;;;2.60;;
64387;SDS011;50709;52.648;4.764;2023-03-08T13:57:59;6.03;;;3.10;;
64387;SDS011;50709;52.648;4.764;2023-03-08T14:00:27;4.82;;;2.78;;
64387;SDS011;50709;52.648;4.764;2023-03-08T14:02:55;5.65;;;2.92;;
64387;SDS011;50709;52.648;4.764;2023-03-08T14:05:25;4.97;;;2.85;;
64387;SDS011;50709;52.648;4.764;2023-03-08T14:08:03;5.85;;;2.88;;
64387;SDS011;50709;52.648;4.764;2023-03-08T14:10:39;5.53;;;2.90;;
64387;SDS011;50709;52.648;4.764;2023-03-08T14:13:35;3.85;;;2.63;;
64387;SDS011;50709;52.648;4.764;2023-03-08T14:16:06;5.40;;;2.63;;
64387;SDS011;50709;52.648;4.764;2023-03-08T14:18:37;5.18;;;2.70;;
64387;SDS011;50709;52.648;4.764;2023-03-08T14:21:14;4.25;;;2.80;;
64387;SDS011;50709;52.648;4.764;2023-03-08T14:23:47;4.97;;;2.88;;
64387;SDS011;50709;52.648;4.764;2023-03-08T14:29:18;6.40;;;2.55;;
64387;SDS011;50709;52.648;4.764;2023-03-08T14:34:48;6.13;;;3.15;;
64387;SDS011;50709;52.648;4.764;2023-03-08T14:39:48;4.93;;;2.90;;
64387;SDS011;50709;52.648;4.764;2023-03-08T14:42:31;7.68;;;3.60;;
64387;SDS011;50709;52.648;4.764;2023-03-08T14:45:05;9.77;;;3.42;;
64387;SDS011;50709;52.648;4.764;2023-03-08T14:47:56;4.78;;;2.95;;
64387;SDS011;50709;52.648;4.764;2023-03-08T14:53:38;4.28;;;2.85;;
64387;SDS011;50709;52.648;4.764;2023-03-08T14:56:06;7.18;;;3.15;;
64387;SDS011;50709;52.648;4.764;2023-03-08T14:58:42;5.57;;;2.97;;
64387;SDS011;50709;52.648;4.764;2023-03-08T15:01:21;6.10;;;2.85;;
64387;SDS011;50709;52.648;4.764;2023-03-08T15:03:54;4.68;;;3.10;;
64387;SDS011;50709;52.648;4.764;2023-03-08T15:06:21;6.35;;;2.85;;
64387;SDS011;50709;52.648;4.764;2023-03-08T15:08:50;4.97;;;2.75;;
64387;SDS011;50709;52.648;4.764;2023-03-08T15:11:16;7.18;;;3.20;;
64387;SDS011;50709;52.648;4.764;2023-03-08T15:13:41;5.47;;;3.22;;
64387;SDS011;50709;52.648;4.764;2023-03-08T15:16:08;6.55;;;3.10;;
64387;SDS011;50709;52.648;4.764;2023-03-08T15:18:34;8.30;;;3.15;;
64387;SDS011;50709;52.648;4.764;2023-03-08T15:21:00;4.85;;;3.08;;
64387;SDS011;50709;52.648;4.764;2023-03-08T15:23:26;7.85;;;3.00;;
64387;SDS011;50709;52.648;4.764;2023-03-08T15:25:54;7.03;;;3.60;;
64387;SDS011;50709;52.648;4.764;2023-03-08T15:28:20;6.88;;;3.50;;
64387;SDS011;50709;52.648;4.764;2023-03-08T15:30:47;6.28;;;3.40;;
64387;SDS011;50709;52.648;4.764;2023-03-08T15:33:13;7.15;;;3.83;;
64387;SDS011;50709;52.648;4.764;2023-03-08T15:35:39;6.00;;;3.30;;
64387;SDS011;50709;52.648;4.764;2023-03-08T15:38:05;5.00;;;3.05;;
64387;SDS011;50709;52.648;4.764;2023-03-08T15:40:31;4.88;;;3.05;;
64387;SDS011;50709;52.648;4.764;2023-03-08T15:42:58;4.35;;;3.13;;
64387;SDS011;50709;52.648;4.764;2023-03-08T15:45:24;4.45;;;2.95;;
64387;SDS011;50709;52.648;4.764;2023-03-08T15:47:59;8.23;;;3.03;;
64387;SDS011;50709;52.648;4.764;2023-03-08T15:50:27;5.20;;;2.88;;
64387;SDS011;50709;52.648;4.764;2023-03-08T15:52:53;6.43;;;3.30;;
64387;SDS011;50709;52.648;4.764;2023-03-08T15:55:20;3.92;;;2.63;;
64387;SDS011;50709;52.648;4.764;2023-03-08T15:57:46;4.18;;;2.33;;
64387;SDS011;50709;52.648;4.764;2023-03-08T16:00:13;7.57;;;3.38;;
64387;SDS011;50709;52.648;4.764;2023-03-08T16:02:43;3.78;;;2.60;;
64387;SDS011;50709;52.648;4.764;2023-03-08T16:05:10;5.95;;;3.20;;
64387;SDS011;50709;52.648;4.764;2023-03-08T16:07:36;4.43;;;2.72;;
64387;SDS011;50709;52.648;4.764;2023-03-08T16:10:02;5.55;;;3.22;;
64387;SDS011;50709;52.648;4.764;2023-03-08T16:12:29;7.78;;;4.65;;
64387;SDS011;50709;52.648;4.764;2023-03-08T16:14:55;7.20;;;3.40;;
64387;SDS011;50709;52.648;4.764;2023-03-08T16:17:22;4.88;;;3.13;;